Time;durP1;ratioP1;P1;durP2;ratioP2;P2;SDS_P1;SDS_P2;PMS_P1;PMS_P2;Temp;Humidity;BMP_temperature;BMP_pressure;BME280_temperature;BME280_humidity;BME280_pressure;Samples;Min_cycle;Max_cycle;Signal;HPM_P1;HPM_P2
2023/12/27 00:01:50;;;;;;;;;;;7.20;84.60;;;;;;4995273;28;86932;-44
2023/12/27 00:04:15;;;;;;;;;;;7.20;84.40;;;;;;4998403;28;87969;-44
2023/12/27 00:06:41;;;;;;;;;;;7.20;84.60;;;;;;4995987;28;87660;-44
2023/12/27 00:09:06;;;;;;;;;;;7.20;84.40;;;;;;4997941;28;87320;-44
2023/12/27 00:11:32;;;;;;;;;;;7.20;84.40;;;;;;5000964;28;88012;-44
2023/12/27 00:13:58;;;;;;;;;;;7.20;84.60;;;;;;5002061;28;86912;-44
2023/12/27 00:16:23;;;;;;;;;;;7.20;84.60;;;;;;4996915;28;86985;-45
2023/12/27 00:18:49;;;;;;;;;;;7.20;84.40;;;;;;4992345;28;87441;-42
2023/12/27 00:21:15;;;;;;;;;;;7.20;84.50;;;;;;5001125;28;86818;-44
2023/12/27 00:23:40;;;;;;;;;;;7.10;84.40;;;;;;4997073;28;87074;-44
2023/12/27 00:26:06;;;;;;;;;;;7.10;84.40;;;;;;4993376;28;86916;-44
2023/12/27 00:28:31;;;;;;;;;;;7.10;84.50;;;;;;4997102;28;89443;-43
2023/12/27 00:30:57;;;;;;;;;;;7.10;84.40;;;;;;5000270;28;87054;-44
2023/12/27 00:33:22;;;;;;;;;;;7.10;84.60;;;;;;4998520;28;86933;-44
2023/12/27 00:35:48;;;;;;;;;;;7.10;84.50;;;;;;5002275;28;87416;-44
2023/12/27 00:38:13;;;;;;;;;;;7.10;84.50;;;;;;4996003;28;87667;-44
2023/12/27 00:40:39;;;;;;;;;;;7.10;84.50;;;;;;4994697;28;87660;-43
2023/12/27 00:43:05;;;;;;;;;;;7.00;84.50;;;;;;4998854;28;86863;-44
2023/12/27 00:45:30;;;;;;;;;;;7.10;84.60;;;;;;4998032;28;87667;-45
2023/12/27 00:47:56;;;;;;;;;;;7.00;84.50;;;;;;4995005;28;87568;-44
2023/12/27 00:50:21;;;;;;;;;;;7.00;84.50;;;;;;4995817;28;87092;-43
2023/12/27 00:52:47;;;;;;;;;;;7.00;84.40;;;;;;5001609;28;87961;-44
2023/12/27 00:55:13;;;;;;;;;;;7.00;84.40;;;;;;4997591;28;87505;-44
2023/12/27 00:57:38;;;;;;;;;;;7.00;84.50;;;;;;4999056;28;87026;-43
2023/12/27 01:00:04;;;;;;;;;;;7.00;84.40;;;;;;4997191;28;87685;-44
2023/12/27 01:02:30;;;;;;;;;;;7.00;84.30;;;;;;4999144;28;86877;-44
2023/12/27 01:04:56;;;;;;;;;;;7.00;84.40;;;;;;4994197;28;86990;-43
2023/12/27 01:07:22;;;;;;;;;;;7.00;84.40;;;;;;4994759;28;87422;-43
2023/12/27 01:09:47;;;;;;;;;;;6.90;84.40;;;;;;4996924;28;86461;-43
2023/12/27 01:12:13;;;;;;;;;;;6.90;84.50;;;;;;4995483;28;86704;-43
2023/12/27 01:14:38;;;;;;;;;;;6.90;85.00;;;;;;4992121;28;88324;-44
2023/12/27 01:17:04;;;;;;;;;;;6.90;84.30;;;;;;4996919;28;87997;-44
2023/12/27 01:19:30;;;;;;;;;;;6.90;84.40;;;;;;4997855;28;87441;-44
2023/12/27 01:21:55;;;;;;;;;;;6.90;84.50;;;;;;4993719;28;87019;-43
2023/12/27 01:24:21;;;;;;;;;;;6.90;84.40;;;;;;4994161;28;87175;-45
2023/12/27 01:26:46;;;;;;;;;;;6.90;84.30;;;;;;4995727;28;87287;-46
2023/12/27 01:29:12;;;;;;;;;;;6.90;84.30;;;;;;4998022;28;86900;-44
2023/12/27 01:31:37;;;;;;;;;;;6.80;84.30;;;;;;4994215;28;87762;-43
2023/12/27 01:34:03;;;;;;;;;;;6.80;84.30;;;;;;4996226;28;86295;-44
2023/12/27 01:36:28;;;;;;;;;;;6.80;84.30;;;;;;4998126;28;87143;-44
2023/12/27 01:38:54;;;;;;;;;;;6.80;84.20;;;;;;4999284;28;87334;-46
2023/12/27 01:41:20;;;;;;;;;;;6.90;84.20;;;;;;4995883;28;87764;-44
2023/12/27 01:43:46;;;;;;;;;;;6.80;84.20;;;;;;5000696;28;87862;-45
2023/12/27 01:46:12;;;;;;;;;;;6.80;84.20;;;;;;4990575;28;88431;-44
2023/12/27 01:48:38;;;;;;;;;;;6.80;84.30;;;;;;5001032;28;87068;-44
2023/12/27 01:51:03;;;;;;;;;;;6.80;84.20;;;;;;4997039;28;86986;-43
2023/12/27 01:53:29;;;;;;;;;;;6.80;84.30;;;;;;5001232;28;87527;-44
2023/12/27 01:55:55;;;;;;;;;;;6.70;84.30;;;;;;5002302;28;87137;-43
2023/12/27 01:58:22;;;;;;;;;;;6.70;84.30;;;;;;4998932;28;86726;-43
2023/12/27 02:00:48;;;;;;;;;;;6.70;84.30;;;;;;5001799;28;87303;-44
2023/12/27 02:03:13;;;;;;;;;;;6.70;84.20;;;;;;4998723;28;86837;-45
2023/12/27 02:05:40;;;;;;;;;;;6.70;84.20;;;;;;5000245;28;88376;-44
2023/12/27 02:08:06;;;;;;;;;;;6.70;84.20;;;;;;5000352;28;87299;-43
2023/12/27 02:10:32;;;;;;;;;;;6.70;84.80;;;;;;5000847;28;87022;-44
2023/12/27 02:13:03;;;;;;;;;;;6.70;84.30;;;;;;4999607;28;87403;-43
2023/12/27 02:15:28;;;;;;;;;;;6.70;84.30;;;;;;4997268;28;87038;-44
2023/12/27 02:17:55;;;;;;;;;;;6.70;84.30;;;;;;4999641;28;87048;-43
2023/12/27 02:20:21;;;;;;;;;;;6.60;84.10;;;;;;4997500;28;88630;-44
2023/12/27 02:22:48;;;;;;;;;;;6.70;84.20;;;;;;5004245;28;86212;-44
2023/12/27 02:25:13;;;;;;;;;;;6.70;84.20;;;;;;5000443;28;88416;-43
2023/12/27 02:27:39;;;;;;;;;;;6.70;84.20;;;;;;5001910;28;87200;-44
2023/12/27 02:30:05;;;;;;;;;;;6.60;84.20;;;;;;4998338;28;88010;-43
2023/12/27 02:32:31;;;;;;;;;;;6.60;84.20;;;;;;5000599;28;87709;-43
2023/12/27 02:34:57;;;;;;;;;;;6.60;84.30;;;;;;4999496;28;86913;-43
2023/12/27 02:37:22;;;;;;;;;;;6.60;84.30;;;;;;4996460;28;86964;-44
2023/12/27 02:39:48;;;;;;;;;;;6.60;84.20;;;;;;4999761;28;87332;-44
2023/12/27 02:42:13;;;;;;;;;;;6.60;84.20;;;;;;5003970;28;87093;-44
2023/12/27 02:44:39;;;;;;;;;;;6.60;84.30;;;;;;5006769;28;87346;-43
2023/12/27 02:47:06;;;;;;;;;;;6.50;84.20;;;;;;5000865;28;86260;-43
2023/12/27 02:49:31;;;;;;;;;;;6.50;84.20;;;;;;4998994;28;87163;-43
2023/12/27 02:51:57;;;;;;;;;;;6.50;84.20;;;;;;4999835;28;87608;-44
2023/12/27 02:54:22;;;;;;;;;;;6.50;84.20;;;;;;4994588;28;87980;-44
2023/12/27 02:56:48;;;;;;;;;;;6.50;84.20;;;;;;5002807;28;88618;-44
2023/12/27 02:59:13;;;;;;;;;;;6.50;84.20;;;;;;4997786;28;87300;-44
2023/12/27 03:01:39;;;;;;;;;;;6.50;84.20;;;;;;4999368;28;87038;-44
2023/12/27 03:04:05;;;;;;;;;;;6.50;84.20;;;;;;5000667;28;87090;-44
2023/12/27 03:06:30;;;;;;;;;;;6.50;84.30;;;;;;5001543;28;87440;-43
2023/12/27 03:08:56;;;;;;;;;;;6.50;84.30;;;;;;5000282;28;87019;-43
2023/12/27 03:11:21;;;;;;;;;;;6.40;84.20;;;;;;5001973;28;86131;-44
2023/12/27 03:13:47;;;;;;;;;;;6.40;84.10;;;;;;4998810;28;87017;-43
2023/12/27 03:16:12;;;;;;;;;;;6.40;84.10;;;;;;4991800;28;87949;-43
2023/12/27 03:18:38;;;;;;;;;;;6.40;84.10;;;;;;4998068;28;88467;-44
2023/12/27 03:21:04;;;;;;;;;;;6.40;84.30;;;;;;4995184;28;87600;-43
2023/12/27 03:23:29;;;;;;;;;;;6.40;84.30;;;;;;4999561;28;86945;-43
2023/12/27 03:25:55;;;;;;;;;;;6.40;84.20;;;;;;5003458;28;87554;-43
2023/12/27 03:28:21;;;;;;;;;;;6.40;84.20;;;;;;4998633;28;87794;-44
2023/12/27 03:30:47;;;;;;;;;;;6.30;84.10;;;;;;4999310;28;87385;-43
2023/12/27 03:33:12;;;;;;;;;;;6.40;84.20;;;;;;4998295;28;87010;-45
2023/12/27 03:35:38;;;;;;;;;;;6.30;84.10;;;;;;5003120;28;86697;-43
2023/12/27 03:38:03;;;;;;;;;;;6.40;84.20;;;;;;4996594;28;87630;-44
2023/12/27 03:40:29;;;;;;;;;;;6.30;84.30;;;;;;4996426;28;86930;-44
2023/12/27 03:42:54;;;;;;;;;;;6.30;84.30;;;;;;4995235;28;87855;-44
2023/12/27 03:45:20;;;;;;;;;;;6.30;84.40;;;;;;4999672;28;87553;-44
2023/12/27 03:47:45;;;;;;;;;;;6.30;84.30;;;;;;4998456;28;86965;-43
2023/12/27 03:50:12;;;;;;;;;;;6.30;84.40;;;;;;5002977;28;88468;-43
2023/12/27 03:52:37;;;;;;;;;;;6.30;84.40;;;;;;4998437;28;87204;-44
2023/12/27 03:55:03;;;;;;;;;;;6.20;84.30;;;;;;4997306;28;88707;-43
2023/12/27 03:57:29;;;;;;;;;;;6.20;84.40;;;;;;4994679;28;87826;-45
2023/12/27 03:59:54;;;;;;;;;;;6.20;84.40;;;;;;4999264;28;86286;-43
2023/12/27 04:02:20;;;;;;;;;;;6.20;84.40;;;;;;4995423;28;86904;-44
2023/12/27 04:04:48;;;;;;;;;;;6.20;84.40;;;;;;4996875;28;87425;-43
2023/12/27 04:07:13;;;;;;;;;;;6.20;84.40;;;;;;4997911;28;87873;-44
2023/12/27 04:09:39;;;;;;;;;;;6.20;84.30;;;;;;5000532;28;87747;-44
2023/12/27 04:12:06;;;;;;;;;;;6.20;84.30;;;;;;4992973;28;87452;-45
2023/12/27 04:14:32;;;;;;;;;;;6.20;84.40;;;;;;4998110;28;86981;-43
2023/12/27 04:16:57;;;;;;;;;;;6.10;84.40;;;;;;5000900;28;87527;-43
2023/12/27 04:19:23;;;;;;;;;;;6.10;84.40;;;;;;5002020;28;87715;-43
2023/12/27 04:21:48;;;;;;;;;;;6.10;84.40;;;;;;4995265;28;87170;-43
2023/12/27 04:24:14;;;;;;;;;;;6.10;84.90;;;;;;4999012;28;86551;-43
2023/12/27 04:26:40;;;;;;;;;;;6.10;84.30;;;;;;4995106;28;86993;-43
2023/12/27 04:29:09;;;;;;;;;;;6.10;84.20;;;;;;4997179;28;87796;-44
2023/12/27 04:31:36;;;;;;;;;;;6.10;84.30;;;;;;4998596;28;88189;-44
2023/12/27 04:34:01;;;;;;;;;;;6.10;84.30;;;;;;4996408;28;87608;-44
2023/12/27 04:36:27;;;;;;;;;;;6.00;84.30;;;;;;4999441;28;87394;-44
2023/12/27 04:38:53;;;;;;;;;;;6.10;84.30;;;;;;4998626;28;86824;-44
2023/12/27 04:41:18;;;;;;;;;;;6.10;84.30;;;;;;4995191;28;87037;-44
2023/12/27 04:43:44;;;;;;;;;;;6.10;84.30;;;;;;4997666;28;87410;-43
2023/12/27 04:46:10;;;;;;;;;;;6.00;84.30;;;;;;4998445;28;87109;-43
2023/12/27 04:48:35;;;;;;;;;;;6.00;84.90;;;;;;5001910;28;86805;-44
2023/12/27 04:51:01;;;;;;;;;;;6.00;84.30;;;;;;4998413;28;87374;-43
2023/12/27 04:53:26;;;;;;;;;;;6.00;84.20;;;;;;4999792;28;87077;-43
2023/12/27 04:55:52;;;;;;;;;;;6.00;84.20;;;;;;4998066;28;88488;-43
2023/12/27 04:58:18;;;;;;;;;;;6.00;84.20;;;;;;5000364;28;87290;-44
2023/12/27 05:00:43;;;;;;;;;;;6.00;84.30;;;;;;5003157;28;89508;-43
2023/12/27 05:03:09;;;;;;;;;;;6.00;84.20;;;;;;4996409;28;87384;-43
2023/12/27 05:05:34;;;;;;;;;;;6.00;84.20;;;;;;4997153;28;88597;-44
2023/12/27 05:08:00;;;;;;;;;;;6.00;84.20;;;;;;4995887;28;87081;-44
2023/12/27 05:10:26;;;;;;;;;;;5.90;84.40;;;;;;4998162;28;87515;-43
2023/12/27 05:12:53;;;;;;;;;;;5.90;84.40;;;;;;4993315;28;86462;-44
2023/12/27 05:15:19;;;;;;;;;;;5.90;84.30;;;;;;5000488;28;87081;-43
2023/12/27 05:17:44;;;;;;;;;;;5.90;84.30;;;;;;4997598;28;86996;-44
2023/12/27 05:20:11;;;;;;;;;;;5.90;84.20;;;;;;5000321;28;87860;-43
2023/12/27 05:22:39;;;;;;;;;;;5.90;84.30;;;;;;4997885;28;87494;-44
2023/12/27 05:25:08;;;;;;;;;;;5.90;84.20;;;;;;5001413;28;86992;-45
2023/12/27 05:27:34;;;;;;;;;;;5.90;84.20;;;;;;5001317;28;87753;-43
2023/12/27 05:29:59;;;;;;;;;;;5.80;84.20;;;;;;5000944;28;88740;-45
2023/12/27 05:32:25;;;;;;;;;;;5.90;84.20;;;;;;5001924;28;87079;-43
2023/12/27 05:34:54;;;;;;;;;;;5.90;84.10;;;;;;5005764;28;87028;-43
2023/12/27 05:37:20;;;;;;;;;;;5.90;84.10;;;;;;4998112;28;86005;-43
2023/12/27 05:39:46;;;;;;;;;;;5.90;84.00;;;;;;4997209;28;87262;-43
2023/12/27 05:42:13;;;;;;;;;;;5.80;84.10;;;;;;5000968;28;88021;-43
2023/12/27 05:44:39;;;;;;;;;;;5.80;84.10;;;;;;4995939;28;87947;-43
2023/12/27 05:47:05;;;;;;;;;;;5.80;84.10;;;;;;4998529;28;86993;-43
2023/12/27 05:49:30;;;;;;;;;;;5.80;84.10;;;;;;4999807;28;87485;-44
2023/12/27 05:51:56;;;;;;;;;;;5.80;84.20;;;;;;4999071;28;87722;-44
2023/12/27 05:54:21;;;;;;;;;;;5.80;84.00;;;;;;4998266;28;86974;-44
2023/12/27 05:56:47;;;;;;;;;;;5.80;84.00;;;;;;4999070;28;88928;-43
2023/12/27 05:59:13;;;;;;;;;;;5.80;84.00;;;;;;5003011;28;87807;-43
2023/12/27 06:01:45;;;;;;;;;;;5.80;84.10;;;;;;4994647;28;87825;-44
2023/12/27 06:04:10;;;;;;;;;;;5.80;84.10;;;;;;4998496;28;87126;-43
2023/12/27 06:06:36;;;;;;;;;;;5.70;84.00;;;;;;5001054;28;87895;-44
2023/12/27 06:09:02;;;;;;;;;;;5.70;84.00;;;;;;5002285;28;88341;-44
2023/12/27 06:11:27;;;;;;;;;;;5.70;84.10;;;;;;4995927;28;87194;-43
2023/12/27 06:13:53;;;;;;;;;;;5.70;84.00;;;;;;4994328;28;87925;-43
2023/12/27 06:16:18;;;;;;;;;;;5.70;84.00;;;;;;4999267;28;87555;-42
2023/12/27 06:18:44;;;;;;;;;;;5.80;83.90;;;;;;5000518;28;87110;-44
2023/12/27 06:21:10;;;;;;;;;;;5.80;83.90;;;;;;4996261;28;88520;-44
2023/12/27 06:23:36;;;;;;;;;;;5.70;83.70;;;;;;5000631;28;87000;-44
2023/12/27 06:26:01;;;;;;;;;;;5.70;83.80;;;;;;5001710;28;86321;-44
2023/12/27 06:28:28;;;;;;;;;;;5.70;83.90;;;;;;4997231;28;87402;-43
2023/12/27 06:30:53;;;;;;;;;;;5.70;83.90;;;;;;4997103;28;87266;-44
2023/12/27 06:33:19;;;;;;;;;;;5.70;83.90;;;;;;4999311;28;87988;-44
2023/12/27 06:35:44;;;;;;;;;;;5.70;83.90;;;;;;5004110;28;87233;-43
2023/12/27 06:38:10;;;;;;;;;;;5.70;84.10;;;;;;4999376;28;87195;-43
2023/12/27 06:40:35;;;;;;;;;;;5.60;84.00;;;;;;5000745;28;87297;-46
2023/12/27 06:43:02;;;;;;;;;;;5.70;84.00;;;;;;4997122;28;86929;-45
2023/12/27 06:45:27;;;;;;;;;;;5.60;83.90;;;;;;4999857;28;87810;-44
2023/12/27 06:47:53;;;;;;;;;;;5.60;83.90;;;;;;4997182;28;88025;-44
2023/12/27 06:50:18;;;;;;;;;;;5.60;83.90;;;;;;4995748;28;86301;-44
2023/12/27 06:52:44;;;;;;;;;;;5.70;83.90;;;;;;4998054;28;86963;-44
2023/12/27 06:55:10;;;;;;;;;;;5.70;83.80;;;;;;5001941;28;89253;-45
2023/12/27 06:57:35;;;;;;;;;;;5.60;83.80;;;;;;4995571;28;88267;-43
2023/12/27 07:00:01;;;;;;;;;;;5.60;83.80;;;;;;4996926;28;87828;-43
2023/12/27 07:02:26;;;;;;;;;;;5.60;83.70;;;;;;5005064;28;88287;-43
2023/12/27 07:04:52;;;;;;;;;;;5.70;83.60;;;;;;4998716;28;86999;-43
2023/12/27 07:07:17;;;;;;;;;;;5.60;83.70;;;;;;4996085;28;87585;-44
2023/12/27 07:09:43;;;;;;;;;;;5.60;83.60;;;;;;5001138;28;87169;-44
2023/12/27 07:12:09;;;;;;;;;;;5.60;83.70;;;;;;5001325;28;87076;-44
2023/12/27 07:14:35;;;;;;;;;;;5.50;83.90;;;;;;5001422;28;87373;-43
2023/12/27 07:17:01;;;;;;;;;;;5.60;84.00;;;;;;4996209;28;87542;-44
2023/12/27 07:19:29;;;;;;;;;;;5.50;83.90;;;;;;4993639;28;87935;-44
2023/12/27 07:21:55;;;;;;;;;;;5.50;83.80;;;;;;4998591;28;89234;-44
2023/12/27 07:24:22;;;;;;;;;;;5.60;83.80;;;;;;5001953;28;88348;-43
2023/12/27 07:26:48;;;;;;;;;;;5.60;83.70;;;;;;4998424;28;88489;-43
2023/12/27 07:29:13;;;;;;;;;;;5.60;83.70;;;;;;4999327;28;87157;-44
2023/12/27 07:31:39;;;;;;;;;;;5.60;83.80;;;;;;5003493;28;87514;-43
2023/12/27 07:34:04;;;;;;;;;;;5.50;83.70;;;;;;4993593;28;87499;-44
2023/12/27 07:36:30;;;;;;;;;;;5.60;83.80;;;;;;4997630;28;87048;-43
2023/12/27 07:38:55;;;;;;;;;;;5.50;83.90;;;;;;4996077;28;86778;-43
2023/12/27 07:41:21;;;;;;;;;;;5.50;83.90;;;;;;5002916;28;87169;-45
2023/12/27 07:43:46;;;;;;;;;;;5.60;83.90;;;;;;4995419;28;87129;-43
2023/12/27 07:46:12;;;;;;;;;;;5.50;84.10;;;;;;4996162;28;88533;-43
2023/12/27 07:48:37;;;;;;;;;;;5.50;84.10;;;;;;4998589;28;86991;-45
2023/12/27 07:51:03;;;;;;;;;;;5.50;84.30;;;;;;4997765;28;86986;-43
2023/12/27 07:53:29;;;;;;;;;;;5.40;84.40;;;;;;4997978;28;88538;-43
2023/12/27 07:55:55;;;;;;;;;;;5.50;84.40;;;;;;5000984;28;88110;-43
2023/12/27 07:58:20;;;;;;;;;;;5.50;84.40;;;;;;4995509;28;87227;-45
2023/12/27 08:00:46;;;;;;;;;;;5.40;84.60;;;;;;4999466;28;87759;-43
2023/12/27 08:03:11;;;;;;;;;;;5.50;84.50;;;;;;4996653;28;87482;-43
2023/12/27 08:05:37;;;;;;;;;;;5.50;84.40;;;;;;4997442;28;86961;-43
2023/12/27 08:08:03;;;;;;;;;;;5.50;84.30;;;;;;4999414;28;86946;-43
2023/12/27 08:10:29;;;;;;;;;;;5.50;84.40;;;;;;4993853;28;87881;-43
2023/12/27 08:12:55;;;;;;;;;;;5.40;84.50;;;;;;4994536;28;87287;-44
2023/12/27 08:15:20;;;;;;;;;;;5.40;84.60;;;;;;4996193;28;87036;-43
2023/12/27 08:17:46;;;;;;;;;;;5.40;84.80;;;;;;4999694;28;87071;-44
2023/12/27 08:20:11;;;;;;;;;;;5.40;85.00;;;;;;4995852;28;87337;-45
2023/12/27 08:22:37;;;;;;;;;;;5.40;84.80;;;;;;4999428;28;88845;-42
2023/12/27 08:25:05;;;;;;;;;;;5.40;84.80;;;;;;4999001;28;86984;-44
2023/12/27 08:27:31;;;;;;;;;;;5.40;84.80;;;;;;5001197;28;87612;-43
2023/12/27 08:29:56;;;;;;;;;;;5.40;84.80;;;;;;4996630;28;87010;-43
2023/12/27 08:32:22;;;;;;;;;;;5.40;84.70;;;;;;4996502;28;87497;-43
2023/12/27 08:34:49;;;;;;;;;;;5.40;84.90;;;;;;4996517;28;88325;-44
2023/12/27 08:37:15;;;;;;;;;;;5.40;84.90;;;;;;4998600;28;88779;-44
2023/12/27 08:39:40;;;;;;;;;;;5.40;84.90;;;;;;4995918;28;87531;-43
2023/12/27 08:42:06;;;;;;;;;;;5.40;85.30;;;;;;4998578;28;87057;-43
2023/12/27 08:44:31;;;;;;;;;;;5.40;85.20;;;;;;4997708;28;89900;-43
2023/12/27 08:46:57;;;;;;;;;;;5.40;85.10;;;;;;5001504;28;87472;-44
2023/12/27 08:49:24;;;;;;;;;;;5.40;85.20;;;;;;5000797;28;87022;-44
2023/12/27 08:51:50;;;;;;;;;;;5.40;85.10;;;;;;5000256;28;87733;-43
2023/12/27 08:54:16;;;;;;;;;;;5.40;85.20;;;;;;5003518;28;87283;-43
2023/12/27 08:56:41;;;;;;;;;;;5.40;85.20;;;;;;5004765;28;87159;-43
2023/12/27 08:59:07;;;;;;;;;;;5.40;85.10;;;;;;5002982;28;88414;-44
2023/12/27 09:01:32;;;;;;;;;;;5.40;85.10;;;;;;4999571;28;87050;-43
2023/12/27 09:03:58;;;;;;;;;;;5.40;85.30;;;;;;5000921;28;87072;-44
2023/12/27 09:06:24;;;;;;;;;;;5.40;85.40;;;;;;4997300;28;88403;-44
2023/12/27 09:08:50;;;;;;;;;;;5.40;85.40;;;;;;4998840;28;87069;-44
2023/12/27 09:11:18;;;;;;;;;;;5.30;85.60;;;;;;5005380;28;89491;-43
2023/12/27 09:13:44;;;;;;;;;;;5.40;85.80;;;;;;5001552;28;86913;-45
2023/12/27 09:16:09;;;;;;;;;;;5.40;85.50;;;;;;5002019;28;86680;-44
2023/12/27 09:18:35;;;;;;;;;;;5.40;85.50;;;;;;5002671;28;87437;-43
2023/12/27 09:21:00;;;;;;;;;;;5.40;85.30;;;;;;4998464;28;87047;-43
2023/12/27 09:23:26;;;;;;;;;;;5.40;85.40;;;;;;5000884;28;87903;-45
2023/12/27 09:25:51;;;;;;;;;;;5.40;85.60;;;;;;5001179;28;87481;-43
2023/12/27 09:28:18;;;;;;;;;;;5.40;85.50;;;;;;5001459;28;87043;-44
2023/12/27 09:30:44;;;;;;;;;;;5.40;85.90;;;;;;5005227;28;87993;-44
2023/12/27 09:33:09;;;;;;;;;;;5.40;85.70;;;;;;5001243;28;87021;-44
2023/12/27 09:35:35;;;;;;;;;;;5.40;85.80;;;;;;5000190;28;87262;-45
2023/12/27 09:38:01;;;;;;;;;;;5.40;85.60;;;;;;4998230;28;88523;-44
2023/12/27 09:40:26;;;;;;;;;;;5.40;85.60;;;;;;4996560;28;86311;-43
2023/12/27 09:42:52;;;;;;;;;;;5.40;85.70;;;;;;5002045;28;87122;-44
2023/12/27 09:45:20;;;;;;;;;;;5.40;85.60;;;;;;4997780;28;88332;-44
2023/12/27 09:47:47;;;;;;;;;;;5.50;85.50;;;;;;4999440;28;88021;-44
2023/12/27 09:50:13;;;;;;;;;;;5.40;85.70;;;;;;4997986;28;88052;-44
2023/12/27 09:52:39;;;;;;;;;;;5.40;85.60;;;;;;5004718;28;88640;-44
2023/12/27 09:55:05;;;;;;;;;;;5.50;85.40;;;;;;4997131;28;87833;-43
2023/12/27 09:57:31;;;;;;;;;;;5.50;85.50;;;;;;5000752;28;87487;-44
2023/12/27 09:59:58;;;;;;;;;;;5.50;85.30;;;;;;5001117;28;86978;-44
2023/12/27 10:02:25;;;;;;;;;;;5.50;85.60;;;;;;4997979;28;86851;-45
2023/12/27 10:05:05;;;;;;;;;;;5.50;85.70;;;;;;5000571;28;86643;-44
2023/12/27 10:07:32;;;;;;;;;;;5.50;85.90;;;;;;4998576;28;87065;-43
2023/12/27 10:09:58;;;;;;;;;;;5.50;86.00;;;;;;4996905;28;87969;-44
2023/12/27 10:12:24;;;;;;;;;;;5.50;86.00;;;;;;4996158;28;88589;-44
2023/12/27 10:14:51;;;;;;;;;;;5.50;86.00;;;;;;5003298;28;87172;-44
2023/12/27 10:17:17;;;;;;;;;;;5.50;85.80;;;;;;4999192;28;88050;-44
2023/12/27 10:19:44;;;;;;;;;;;5.50;85.60;;;;;;4999751;28;87283;-44
2023/12/27 10:22:11;;;;;;;;;;;5.50;85.60;;;;;;4999969;28;86988;-44
2023/12/27 10:24:37;;;;;;;;;;;5.50;85.60;;;;;;4998826;28;87585;-44
2023/12/27 10:27:03;;;;;;;;;;;5.50;85.50;;;;;;4997774;28;87095;-44
2023/12/27 10:29:32;;;;;;;;;;;5.50;85.60;;;;;;4996973;28;87034;-45
2023/12/27 10:31:58;;;;;;;;;;;5.50;85.40;;;;;;4998784;28;88578;-43
2023/12/27 10:34:24;;;;;;;;;;;5.50;85.50;;;;;;4997871;28;86869;-44
2023/12/27 10:36:50;;;;;;;;;;;5.60;85.60;;;;;;4998178;28;87992;-45
2023/12/27 10:39:19;;;;;;;;;;;5.50;85.50;;;;;;4998775;28;87021;-43
2023/12/27 10:41:44;;;;;;;;;;;5.50;85.50;;;;;;4995776;28;87914;-44
2023/12/27 10:44:11;;;;;;;;;;;5.50;85.60;;;;;;4999766;28;87535;-45
2023/12/27 10:46:39;;;;;;;;;;;5.50;85.50;;;;;;4999331;28;86923;-45
2023/12/27 10:49:05;;;;;;;;;;;5.60;85.50;;;;;;5005911;28;87016;-44
2023/12/27 10:51:32;;;;;;;;;;;5.50;85.50;;;;;;4995330;28;88777;-44
2023/12/27 10:53:59;;;;;;;;;;;5.50;85.50;;;;;;5001178;28;86261;-43
2023/12/27 10:56:25;;;;;;;;;;;5.50;85.40;;;;;;5001412;28;87161;-45
2023/12/27 10:58:52;;;;;;;;;;;5.50;85.80;;;;;;5004480;28;87475;-46
2023/12/27 11:01:18;;;;;;;;;;;5.60;86.20;;;;;;4996301;28;88035;-44
2023/12/27 11:03:46;;;;;;;;;;;5.50;85.50;;;;;;4998861;28;87469;-46
2023/12/27 11:06:13;;;;;;;;;;;5.60;85.70;;;;;;4999668;28;87155;-46
2023/12/27 11:08:39;;;;;;;;;;;5.60;86.00;;;;;;5001737;28;87970;-46
2023/12/27 11:11:05;;;;;;;;;;;5.60;86.30;;;;;;4999601;28;87377;-46
2023/12/27 11:13:31;;;;;;;;;;;5.60;85.90;;;;;;4994349;28;88511;-47
2023/12/27 11:15:57;;;;;;;;;;;5.60;85.80;;;;;;4999900;28;87862;-45
2023/12/27 11:18:24;;;;;;;;;;;5.60;86.30;;;;;;4999808;28;87858;-44
2023/12/27 11:20:51;;;;;;;;;;;5.60;86.80;;;;;;5000211;28;86977;-45
2023/12/27 11:23:16;;;;;;;;;;;5.60;86.50;;;;;;4998516;28;88566;-44
2023/12/27 11:25:42;;;;;;;;;;;5.60;87.10;;;;;;4999798;28;87721;-43
2023/12/27 11:28:07;;;;;;;;;;;5.60;86.90;;;;;;5001121;28;87329;-44
2023/12/27 11:30:34;;;;;;;;;;;5.60;87.10;;;;;;4999780;28;87422;-44
2023/12/27 11:32:59;;;;;;;;;;;5.60;87.10;;;;;;4995527;28;86976;-44
2023/12/27 11:35:27;;;;;;;;;;;5.60;87.40;;;;;;4999161;28;86998;-43
2023/12/27 11:38:03;;;;;;;;;;;5.60;87.40;;;;;;4999046;28;87584;-44
2023/12/27 11:40:32;;;;;;;;;;;5.60;88.10;;;;;;5001170;28;87001;-44
2023/12/27 11:42:58;;;;;;;;;;;5.60;87.80;;;;;;4999215;28;86650;-44
2023/12/27 11:45:24;;;;;;;;;;;5.60;88.40;;;;;;4995175;28;87109;-44
2023/12/27 11:47:49;;;;;;;;;;;5.60;88.50;;;;;;4998790;28;87876;-43
2023/12/27 11:50:16;;;;;;;;;;;5.70;88.20;;;;;;5000205;28;87946;-43
2023/12/27 11:52:45;;;;;;;;;;;5.70;88.60;;;;;;4995128;28;86966;-43
2023/12/27 11:55:12;;;;;;;;;;;5.70;88.70;;;;;;4998522;28;86775;-43
2023/12/27 11:57:38;;;;;;;;;;;5.70;88.90;;;;;;4999609;28;88445;-43
2023/12/27 12:00:05;;;;;;;;;;;5.70;88.50;;;;;;5000277;28;86998;-44
2023/12/27 12:02:32;;;;;;;;;;;5.70;88.80;;;;;;4999267;28;86946;-44
2023/12/27 12:05:10;;;;;;;;;;;5.70;88.80;;;;;;4998808;28;87464;-44
2023/12/27 12:07:38;;;;;;;;;;;5.70;88.80;;;;;;4995694;28;86856;-45
2023/12/27 12:10:19;;;;;;;;;;;5.70;89.00;;;;;;4996553;28;88448;-44
2023/12/27 12:12:45;;;;;;;;;;;5.80;89.00;;;;;;4996520;28;86985;-44
2023/12/27 12:15:10;;;;;;;;;;;5.80;89.20;;;;;;4997453;28;87836;-43
2023/12/27 12:17:36;;;;;;;;;;;5.80;89.10;;;;;;5000173;28;87570;-43
2023/12/27 12:20:03;;;;;;;;;;;5.80;89.10;;;;;;4996152;28;86994;-44
2023/12/27 12:22:29;;;;;;;;;;;5.80;89.40;;;;;;4999472;28;87224;-43
2023/12/27 12:25:04;;;;;;;;;;;5.80;89.60;;;;;;5001602;28;87456;-44
2023/12/27 12:27:30;;;;;;;;;;;5.80;89.50;;;;;;4997338;28;87224;-44
2023/12/27 12:29:55;;;;;;;;;;;5.80;89.40;;;;;;4991784;28;87977;-43
2023/12/27 12:32:21;;;;;;;;;;;5.80;89.40;;;;;;4995638;28;86229;-43
2023/12/27 12:34:47;;;;;;;;;;;5.90;89.30;;;;;;5003531;28;86920;-43
2023/12/27 12:37:14;;;;;;;;;;;5.90;89.40;;;;;;4998027;28;86875;-44
2023/12/27 12:39:40;;;;;;;;;;;5.80;89.60;;;;;;4998098;28;87915;-43
2023/12/27 12:42:07;;;;;;;;;;;5.90;89.70;;;;;;4996967;28;88983;-43
2023/12/27 12:44:32;;;;;;;;;;;5.90;90.00;;;;;;4997780;28;87631;-44
2023/12/27 12:46:59;;;;;;;;;;;5.90;90.10;;;;;;5002803;28;87017;-44
2023/12/27 12:49:24;;;;;;;;;;;5.90;89.70;;;;;;4998496;28;87331;-44
2023/12/27 12:51:52;;;;;;;;;;;5.90;89.80;;;;;;4999231;28;87152;-45
2023/12/27 12:54:18;;;;;;;;;;;5.90;90.20;;;;;;4997488;28;87919;-44
2023/12/27 12:56:45;;;;;;;;;;;5.90;90.00;;;;;;5002684;28;87848;-44
2023/12/27 12:59:10;;;;;;;;;;;6.00;90.10;;;;;;4994618;28;87067;-43
2023/12/27 13:01:36;;;;;;;;;;;6.00;90.00;;;;;;4999160;28;87115;-43
2023/12/27 13:04:04;;;;;;;;;;;6.00;90.10;;;;;;4996228;28;89311;-44
2023/12/27 13:06:31;;;;;;;;;;;6.00;90.00;;;;;;4995890;28;86981;-44
2023/12/27 13:08:57;;;;;;;;;;;6.00;89.70;;;;;;4998599;28;88134;-43
2023/12/27 13:11:23;;;;;;;;;;;6.00;89.70;;;;;;4996275;28;87009;-43
2023/12/27 13:13:49;;;;;;;;;;;6.10;90.30;;;;;;5001186;28;88566;-44
2023/12/27 13:16:16;;;;;;;;;;;6.00;90.00;;;;;;4996772;28;88473;-44
2023/12/27 13:18:41;;;;;;;;;;;6.10;90.00;;;;;;4997686;28;87100;-45
2023/12/27 13:21:12;;;;;;;;;;;6.10;90.20;;;;;;4999516;28;86313;-46
2023/12/27 13:23:38;;;;;;;;;;;6.10;88.30;;;;;;4994489;28;87639;-47
2023/12/27 13:26:04;;;;;;;;;;;6.20;87.30;;;;;;4996929;28;87024;-46
2023/12/27 13:28:30;;;;;;;;;;;6.20;87.40;;;;;;4994335;28;88040;-47
2023/12/27 13:30:55;;;;;;;;;;;6.30;87.40;;;;;;5000829;28;86786;-47
2023/12/27 13:33:22;;;;;;;;;;;6.40;87.30;;;;;;4996198;28;86724;-46
2023/12/27 13:35:48;;;;;;;;;;;6.40;87.10;;;;;;4999277;28;86964;-50
2023/12/27 13:38:14;;;;;;;;;;;6.40;86.80;;;;;;4997872;28;87015;-46
2023/12/27 13:40:40;;;;;;;;;;;6.50;86.60;;;;;;5000241;28;87767;-48
2023/12/27 13:43:06;;;;;;;;;;;6.50;86.00;;;;;;4997026;28;87770;-47
2023/12/27 13:45:31;;;;;;;;;;;6.60;85.60;;;;;;5001618;28;86311;-47
2023/12/27 13:47:57;;;;;;;;;;;6.60;86.30;;;;;;5000467;28;87019;-53
2023/12/27 13:50:23;;;;;;;;;;;6.80;86.50;;;;;;4998565;28;87673;-55
2023/12/27 13:52:48;;;;;;;;;;;6.90;85.10;;;;;;5000235;28;88645;-58
2023/12/27 13:55:21;;;;;;;;;;;7.10;84.60;;;;;;4997443;28;87864;-60
2023/12/27 13:57:49;;;;;;;;;;;7.20;85.10;;;;;;4999192;28;86969;-48
2023/12/27 14:00:16;;;;;;;;;;;7.30;85.30;;;;;;4992494;28;87212;-51
2023/12/27 14:02:41;;;;;;;;;;;7.40;84.60;;;;;;4995155;28;88573;-52
2023/12/27 14:05:08;;;;;;;;;;;7.30;82.80;;;;;;5000100;28;87072;-57
2023/12/27 14:07:35;;;;;;;;;;;7.30;82.70;;;;;;5003820;28;87966;-60
2023/12/27 14:10:01;;;;;;;;;;;7.40;84.30;;;;;;4994616;28;87867;-47
2023/12/27 14:12:28;;;;;;;;;;;7.40;85.20;;;;;;5000438;28;87245;-50
2023/12/27 14:14:54;;;;;;;;;;;7.40;84.70;;;;;;4997346;28;88675;-49
2023/12/27 14:17:19;;;;;;;;;;;7.30;83.10;;;;;;5000082;28;87955;-50
2023/12/27 14:19:45;;;;;;;;;;;7.20;82.50;;;;;;4997920;28;88899;-56
2023/12/27 14:22:10;;;;;;;;;;;7.40;84.40;;;;;;4992347;28;86911;-52
2023/12/27 14:24:36;;;;;;;;;;;7.40;83.80;;;;;;4998509;28;86797;-50